sensor_id;sensor_type;location;lat;lon;timestamp;P1;durP1;ratioP1;P2;durP2;ratioP2
7179;SDS011;3631;42.152;24.756;2022-08-01T00:02:07;11.13;;;9.98;;
7179;SDS011;3631;42.152;24.756;2022-08-01T00:04:34;10.10;;;9.45;;
7179;SDS011;3631;42.152;24.756;2022-08-01T00:07:02;10.55;;;9.88;;
7179;SDS011;3631;42.152;24.756;2022-08-01T00:09:30;9.98;;;9.38;;
7179;SDS011;3631;42.152;24.756;2022-08-01T00:11:57;10.63;;;9.82;;
7179;SDS011;3631;42.152;24.756;2022-08-01T00:14:24;9.95;;;9.35;;
7179;SDS011;3631;42.152;24.756;2022-08-01T00:16:51;9.80;;;8.93;;
7179;SDS011;3631;42.152;24.756;2022-08-01T00:19:17;10.02;;;9.25;;
7179;SDS011;3631;42.152;24.756;2022-08-01T00:21:44;9.77;;;9.15;;
7179;SDS011;3631;42.152;24.756;2022-08-01T00:24:13;9.02;;;8.57;;
7179;SDS011;3631;42.152;24.756;2022-08-01T00:26:40;9.73;;;8.95;;
7179;SDS011;3631;42.152;24.756;2022-08-01T00:29:07;9.00;;;8.40;;
7179;SDS011;3631;42.152;24.756;2022-08-01T00:31:33;9.15;;;8.70;;
7179;SDS011;3631;42.152;24.756;2022-08-01T00:34:00;8.85;;;8.35;;
7179;SDS011;3631;42.152;24.756;2022-08-01T00:36:27;8.68;;;8.25;;
7179;SDS011;3631;42.152;24.756;2022-08-01T00:38:54;9.00;;;8.43;;
7179;SDS011;3631;42.152;24.756;2022-08-01T00:41:23;8.80;;;8.40;;
7179;SDS011;3631;42.152;24.756;2022-08-01T00:43:50;9.15;;;8.63;;
7179;SDS011;3631;42.152;24.756;2022-08-01T00:46:16;9.20;;;8.60;;
7179;SDS011;3631;42.152;24.756;2022-08-01T00:48:43;10.05;;;9.18;;
7179;SDS011;3631;42.152;24.756;2022-08-01T00:51:10;9.27;;;8.77;;
7179;SDS011;3631;42.152;24.756;2022-08-01T00:53:39;9.32;;;8.82;;
7179;SDS011;3631;42.152;24.756;2022-08-01T00:56:06;8.75;;;8.35;;
7179;SDS011;3631;42.152;24.756;2022-08-01T00:58:35;8.90;;;8.43;;
7179;SDS011;3631;42.152;24.756;2022-08-01T01:01:03;9.23;;;8.63;;
7179;SDS011;3631;42.152;24.756;2022-08-01T01:03:30;8.93;;;8.52;;
7179;SDS011;3631;42.152;24.756;2022-08-01T01:06:01;10.07;;;9.25;;
7179;SDS011;3631;42.152;24.756;2022-08-01T01:08:39;8.98;;;8.57;;
7179;SDS011;3631;42.152;24.756;2022-08-01T01:11:10;8.63;;;8.13;;
7179;SDS011;3631;42.152;24.756;2022-08-01T01:13:46;9.23;;;8.82;;
7179;SDS011;3631;42.152;24.756;2022-08-01T01:16:18;9.18;;;8.57;;
7179;SDS011;3631;42.152;24.756;2022-08-01T01:18:47;9.32;;;8.73;;
7179;SDS011;3631;42.152;24.756;2022-08-01T01:24:21;9.25;;;8.65;;
7179;SDS011;3631;42.152;24.756;2022-08-01T01:27:01;9.20;;;8.68;;
7179;SDS011;3631;42.152;24.756;2022-08-01T01:29:40;8.75;;;8.25;;
7179;SDS011;3631;42.152;24.756;2022-08-01T01:32:09;9.05;;;8.57;;
7179;SDS011;3631;42.152;24.756;2022-08-01T01:34:44;9.07;;;8.63;;
7179;SDS011;3631;42.152;24.756;2022-08-01T01:37:14;8.38;;;7.97;;
7179;SDS011;3631;42.152;24.756;2022-08-01T01:39:44;8.75;;;8.35;;
7179;SDS011;3631;42.152;24.756;2022-08-01T01:42:14;9.93;;;9.27;;
7179;SDS011;3631;42.152;24.756;2022-08-01T01:44:44;9.32;;;8.52;;
7179;SDS011;3631;42.152;24.756;2022-08-01T01:47:12;9.07;;;8.38;;
7179;SDS011;3631;42.152;24.756;2022-08-01T01:49:40;8.73;;;8.32;;
7179;SDS011;3631;42.152;24.756;2022-08-01T01:52:10;12.80;;;11.88;;
7179;SDS011;3631;42.152;24.756;2022-08-01T01:54:40;8.57;;;8.18;;
7179;SDS011;3631;42.152;24.756;2022-08-01T01:57:12;8.90;;;8.38;;
7179;SDS011;3631;42.152;24.756;2022-08-01T01:59:41;9.13;;;8.63;;
7179;SDS011;3631;42.152;24.756;2022-08-01T02:02:10;9.10;;;8.60;;
7179;SDS011;3631;42.152;24.756;2022-08-01T02:04:40;9.02;;;8.43;;
7179;SDS011;3631;42.152;24.756;2022-08-01T02:07:09;8.93;;;8.52;;
7179;SDS011;3631;42.152;24.756;2022-08-01T02:09:39;9.52;;;8.88;;
7179;SDS011;3631;42.152;24.756;2022-08-01T02:12:09;8.68;;;8.07;;
7179;SDS011;3631;42.152;24.756;2022-08-01T02:14:37;9.48;;;8.98;;
7179;SDS011;3631;42.152;24.756;2022-08-01T02:17:06;9.02;;;8.43;;
7179;SDS011;3631;42.152;24.756;2022-08-01T02:19:36;8.52;;;7.95;;
7179;SDS011;3631;42.152;24.756;2022-08-01T02:22:04;8.73;;;8.32;;
7179;SDS011;3631;42.152;24.756;2022-08-01T02:24:37;8.88;;;8.38;;
7179;SDS011;3631;42.152;24.756;2022-08-01T02:27:07;9.15;;;8.57;;
7179;SDS011;3631;42.152;24.756;2022-08-01T02:29:39;8.95;;;8.43;;
7179;SDS011;3631;42.152;24.756;2022-08-01T02:32:10;9.38;;;8.50;;
7179;SDS011;3631;42.152;24.756;2022-08-01T02:34:42;8.73;;;8.13;;
7179;SDS011;3631;42.152;24.756;2022-08-01T02:37:13;8.15;;;7.55;;
7179;SDS011;3631;42.152;24.756;2022-08-01T02:39:41;8.50;;;7.80;;
7179;SDS011;3631;42.152;24.756;2022-08-01T02:42:11;7.50;;;7.10;;
7179;SDS011;3631;42.152;24.756;2022-08-01T02:44:41;8.95;;;8.20;;
7179;SDS011;3631;42.152;24.756;2022-08-01T02:47:10;8.32;;;7.82;;
7179;SDS011;3631;42.152;24.756;2022-08-01T02:49:39;7.70;;;7.30;;
7179;SDS011;3631;42.152;24.756;2022-08-01T02:52:12;7.30;;;6.80;;
7179;SDS011;3631;42.152;24.756;2022-08-01T02:54:42;7.55;;;7.00;;
7179;SDS011;3631;42.152;24.756;2022-08-01T02:57:12;8.45;;;7.82;;
7179;SDS011;3631;42.152;24.756;2022-08-01T02:59:41;8.02;;;7.45;;
7179;SDS011;3631;42.152;24.756;2022-08-01T03:02:09;7.93;;;7.32;;
7179;SDS011;3631;42.152;24.756;2022-08-01T03:04:38;7.75;;;7.15;;
7179;SDS011;3631;42.152;24.756;2022-08-01T03:07:08;8.35;;;7.68;;
7179;SDS011;3631;42.152;24.756;2022-08-01T03:09:37;7.70;;;7.20;;
7179;SDS011;3631;42.152;24.756;2022-08-01T03:12:14;7.15;;;6.57;;
7179;SDS011;3631;42.152;24.756;2022-08-01T03:14:44;7.45;;;6.90;;
7179;SDS011;3631;42.152;24.756;2022-08-01T03:17:13;7.90;;;7.20;;
7179;SDS011;3631;42.152;24.756;2022-08-01T03:19:43;7.15;;;6.75;;
7179;SDS011;3631;42.152;24.756;2022-08-01T03:22:13;6.90;;;6.47;;
7179;SDS011;3631;42.152;24.756;2022-08-01T03:24:41;7.25;;;6.60;;
7179;SDS011;3631;42.152;24.756;2022-08-01T03:27:10;7.20;;;6.78;;
7179;SDS011;3631;42.152;24.756;2022-08-01T03:29:38;7.05;;;6.60;;
7179;SDS011;3631;42.152;24.756;2022-08-01T03:32:07;7.43;;;6.75;;
7179;SDS011;3631;42.152;24.756;2022-08-01T03:34:36;7.40;;;6.85;;
7179;SDS011;3631;42.152;24.756;2022-08-01T03:37:05;8.52;;;8.02;;
7179;SDS011;3631;42.152;24.756;2022-08-01T03:39:40;7.45;;;6.95;;
7179;SDS011;3631;42.152;24.756;2022-08-01T03:42:14;8.10;;;7.47;;
7179;SDS011;3631;42.152;24.756;2022-08-01T03:44:48;7.00;;;6.45;;
7179;SDS011;3631;42.152;24.756;2022-08-01T03:47:21;7.13;;;6.47;;
7179;SDS011;3631;42.152;24.756;2022-08-01T03:49:51;8.88;;;8.18;;
7179;SDS011;3631;42.152;24.756;2022-08-01T03:52:19;9.90;;;9.20;;
7179;SDS011;3631;42.152;24.756;2022-08-01T03:54:49;10.10;;;9.38;;
7179;SDS011;3631;42.152;24.756;2022-08-01T03:57:20;9.68;;;8.48;;
7179;SDS011;3631;42.152;24.756;2022-08-01T03:59:48;13.00;;;8.95;;
7179;SDS011;3631;42.152;24.756;2022-08-01T04:02:16;6.85;;;6.43;;
7179;SDS011;3631;42.152;24.756;2022-08-01T04:04:43;8.88;;;8.27;;
7179;SDS011;3631;42.152;24.756;2022-08-01T04:07:21;9.27;;;7.82;;
7179;SDS011;3631;42.152;24.756;2022-08-01T04:09:50;7.50;;;6.80;;
7179;SDS011;3631;42.152;24.756;2022-08-01T04:12:17;6.30;;;5.85;;
7179;SDS011;3631;42.152;24.756;2022-08-01T04:14:44;5.88;;;5.53;;
7179;SDS011;3631;42.152;24.756;2022-08-01T04:17:11;6.45;;;6.15;;
7179;SDS011;3631;42.152;24.756;2022-08-01T04:19:38;9.55;;;8.85;;
7179;SDS011;3631;42.152;24.756;2022-08-01T04:22:05;5.30;;;4.90;;
7179;SDS011;3631;42.152;24.756;2022-08-01T04:24:33;4.93;;;4.68;;
7179;SDS011;3631;42.152;24.756;2022-08-01T04:27:05;5.63;;;4.63;;
7179;SDS011;3631;42.152;24.756;2022-08-01T04:29:36;4.80;;;4.40;;
7179;SDS011;3631;42.152;24.756;2022-08-01T04:32:04;7.43;;;6.05;;
7179;SDS011;3631;42.152;24.756;2022-08-01T04:34:34;6.78;;;5.60;;
7179;SDS011;3631;42.152;24.756;2022-08-01T04:37:06;15.32;;;13.85;;
7179;SDS011;3631;42.152;24.756;2022-08-01T04:39:35;6.13;;;4.97;;
7179;SDS011;3631;42.152;24.756;2022-08-01T04:42:05;6.45;;;5.85;;
7179;SDS011;3631;42.152;24.756;2022-08-01T04:44:33;6.88;;;5.30;;
7179;SDS011;3631;42.152;24.756;2022-08-01T04:47:00;5.20;;;4.68;;
7179;SDS011;3631;42.152;24.756;2022-08-01T04:49:29;8.25;;;7.38;;
7179;SDS011;3631;42.152;24.756;2022-08-01T04:51:57;6.65;;;6.07;;
7179;SDS011;3631;42.152;24.756;2022-08-01T04:54:25;7.07;;;6.07;;
7179;SDS011;3631;42.152;24.756;2022-08-01T04:56:52;6.75;;;6.15;;
7179;SDS011;3631;42.152;24.756;2022-08-01T04:59:22;13.32;;;7.93;;
7179;SDS011;3631;42.152;24.756;2022-08-01T05:02:05;6.30;;;5.90;;
7179;SDS011;3631;42.152;24.756;2022-08-01T05:04:33;8.77;;;7.75;;
7179;SDS011;3631;42.152;24.756;2022-08-01T05:07:00;6.20;;;5.60;;
7179;SDS011;3631;42.152;24.756;2022-08-01T05:09:27;4.25;;;3.90;;
7179;SDS011;3631;42.152;24.756;2022-08-01T05:11:53;7.22;;;5.80;;
7179;SDS011;3631;42.152;24.756;2022-08-01T05:14:24;4.68;;;4.28;;
7179;SDS011;3631;42.152;24.756;2022-08-01T05:16:51;4.32;;;4.05;;
7179;SDS011;3631;42.152;24.756;2022-08-01T05:19:18;12.10;;;9.90;;
7179;SDS011;3631;42.152;24.756;2022-08-01T05:21:46;4.60;;;4.28;;
7179;SDS011;3631;42.152;24.756;2022-08-01T05:24:13;5.63;;;5.20;;
7179;SDS011;3631;42.152;24.756;2022-08-01T05:26:40;4.68;;;4.30;;
7179;SDS011;3631;42.152;24.756;2022-08-01T05:29:07;5.63;;;3.80;;
7179;SDS011;3631;42.152;24.756;2022-08-01T05:31:35;4.55;;;4.15;;
7179;SDS011;3631;42.152;24.756;2022-08-01T05:34:02;3.95;;;3.38;;
7179;SDS011;3631;42.152;24.756;2022-08-01T05:36:29;4.63;;;3.03;;
7179;SDS011;3631;42.152;24.756;2022-08-01T05:38:56;3.90;;;3.42;;
7179;SDS011;3631;42.152;24.756;2022-08-01T05:41:23;5.60;;;3.50;;
7179;SDS011;3631;42.152;24.756;2022-08-01T05:43:50;4.47;;;4.18;;
7179;SDS011;3631;42.152;24.756;2022-08-01T05:46:17;4.05;;;3.75;;
7179;SDS011;3631;42.152;24.756;2022-08-01T05:48:45;5.00;;;3.53;;
7179;SDS011;3631;42.152;24.756;2022-08-01T05:51:12;4.38;;;4.10;;
7179;SDS011;3631;42.152;24.756;2022-08-01T05:53:39;4.05;;;3.10;;
7179;SDS011;3631;42.152;24.756;2022-08-01T05:56:06;9.52;;;3.33;;
7179;SDS011;3631;42.152;24.756;2022-08-01T05:58:33;8.63;;;3.65;;
7179;SDS011;3631;42.152;24.756;2022-08-01T06:01:00;5.32;;;3.00;;
7179;SDS011;3631;42.152;24.756;2022-08-01T06:03:27;3.25;;;2.92;;
7179;SDS011;3631;42.152;24.756;2022-08-01T06:05:57;5.65;;;3.28;;
7179;SDS011;3631;42.152;24.756;2022-08-01T06:08:25;2.70;;;2.50;;
7179;SDS011;3631;42.152;24.756;2022-08-01T06:10:52;4.45;;;3.75;;
7179;SDS011;3631;42.152;24.756;2022-08-01T06:13:19;7.20;;;2.95;;
7179;SDS011;3631;42.152;24.756;2022-08-01T06:15:46;3.20;;;2.80;;
7179;SDS011;3631;42.152;24.756;2022-08-01T06:18:13;5.15;;;2.90;;
7179;SDS011;3631;42.152;24.756;2022-08-01T06:20:40;7.32;;;4.25;;
7179;SDS011;3631;42.152;24.756;2022-08-01T06:23:09;4.80;;;3.13;;
7179;SDS011;3631;42.152;24.756;2022-08-01T06:25:36;8.43;;;4.47;;
7179;SDS011;3631;42.152;24.756;2022-08-01T06:28:03;4.30;;;4.10;;
7179;SDS011;3631;42.152;24.756;2022-08-01T06:30:30;5.45;;;3.58;;
7179;SDS011;3631;42.152;24.756;2022-08-01T06:32:57;4.45;;;4.07;;
7179;SDS011;3631;42.152;24.756;2022-08-01T06:35:25;3.40;;;3.20;;
7179;SDS011;3631;42.152;24.756;2022-08-01T06:37:53;5.00;;;4.50;;
7179;SDS011;3631;42.152;24.756;2022-08-01T06:40:21;4.85;;;3.38;;
7179;SDS011;3631;42.152;24.756;2022-08-01T06:42:49;4.60;;;3.42;;
7179;SDS011;3631;42.152;24.756;2022-08-01T06:45:16;3.33;;;3.13;;
7179;SDS011;3631;42.152;24.756;2022-08-01T06:47:44;3.30;;;3.00;;
7179;SDS011;3631;42.152;24.756;2022-08-01T06:50:11;3.15;;;2.85;;
7179;SDS011;3631;42.152;24.756;2022-08-01T06:52:39;3.40;;;2.55;;
7179;SDS011;3631;42.152;24.756;2022-08-01T06:55:06;2.83;;;2.72;;
7179;SDS011;3631;42.152;24.756;2022-08-01T06:57:35;2.90;;;2.70;;
7179;SDS011;3631;42.152;24.756;2022-08-01T07:00:04;7.47;;;3.30;;
7179;SDS011;3631;42.152;24.756;2022-08-01T07:02:35;7.03;;;2.90;;
7179;SDS011;3631;42.152;24.756;2022-08-01T07:05:02;7.07;;;2.97;;
7179;SDS011;3631;42.152;24.756;2022-08-01T07:07:30;3.30;;;3.08;;
7179;SDS011;3631;42.152;24.756;2022-08-01T07:09:57;2.85;;;2.55;;
7179;SDS011;3631;42.152;24.756;2022-08-01T07:12:23;3.60;;;3.30;;
7179;SDS011;3631;42.152;24.756;2022-08-01T07:14:52;3.58;;;2.58;;
7179;SDS011;3631;42.152;24.756;2022-08-01T07:17:19;4.05;;;3.20;;
7179;SDS011;3631;42.152;24.756;2022-08-01T07:19:46;4.95;;;3.67;;
7179;SDS011;3631;42.152;24.756;2022-08-01T07:22:12;6.45;;;2.70;;
7179;SDS011;3631;42.152;24.756;2022-08-01T07:24:41;3.70;;;3.40;;
7179;SDS011;3631;42.152;24.756;2022-08-01T07:27:08;5.90;;;3.75;;
7179;SDS011;3631;42.152;24.756;2022-08-01T07:29:35;12.63;;;4.22;;
7179;SDS011;3631;42.152;24.756;2022-08-01T07:32:04;5.82;;;2.97;;
7179;SDS011;3631;42.152;24.756;2022-08-01T07:34:31;4.75;;;3.13;;
7179;SDS011;3631;42.152;24.756;2022-08-01T07:36:58;4.65;;;3.38;;
7179;SDS011;3631;42.152;24.756;2022-08-01T07:39:25;3.72;;;3.53;;
7179;SDS011;3631;42.152;24.756;2022-08-01T07:41:52;4.32;;;3.65;;
7179;SDS011;3631;42.152;24.756;2022-08-01T07:44:19;3.90;;;3.70;;
7179;SDS011;3631;42.152;24.756;2022-08-01T07:46:46;5.63;;;5.18;;
7179;SDS011;3631;42.152;24.756;2022-08-01T07:49:14;4.50;;;3.97;;
7179;SDS011;3631;42.152;24.756;2022-08-01T07:51:41;5.60;;;3.65;;
7179;SDS011;3631;42.152;24.756;2022-08-01T07:54:08;6.88;;;3.50;;
7179;SDS011;3631;42.152;24.756;2022-08-01T07:56:35;3.60;;;2.92;;
7179;SDS011;3631;42.152;24.756;2022-08-01T07:59:02;4.07;;;3.25;;
7179;SDS011;3631;42.152;24.756;2022-08-01T08:01:29;3.88;;;3.28;;
7179;SDS011;3631;42.152;24.756;2022-08-01T08:03:56;3.78;;;2.72;;
7179;SDS011;3631;42.152;24.756;2022-08-01T08:06:24;3.33;;;2.92;;
7179;SDS011;3631;42.152;24.756;2022-08-01T08:08:51;3.10;;;2.80;;
7179;SDS011;3631;42.152;24.756;2022-08-01T08:11:18;3.00;;;2.70;;
7179;SDS011;3631;42.152;24.756;2022-08-01T08:13:45;3.85;;;3.03;;
7179;SDS011;3631;42.152;24.756;2022-08-01T08:16:12;6.97;;;2.63;;
7179;SDS011;3631;42.152;24.756;2022-08-01T08:18:40;7.28;;;2.90;;
7179;SDS011;3631;42.152;24.756;2022-08-01T08:21:06;9.70;;;2.55;;
7179;SDS011;3631;42.152;24.756;2022-08-01T08:23:35;3.17;;;2.88;;
7179;SDS011;3631;42.152;24.756;2022-08-01T08:26:19;4.38;;;3.03;;
7179;SDS011;3631;42.152;24.756;2022-08-01T08:28:48;7.40;;;3.05;;
7179;SDS011;3631;42.152;24.756;2022-08-01T08:31:15;3.22;;;2.47;;
7179;SDS011;3631;42.152;24.756;2022-08-01T08:33:42;3.55;;;2.45;;
7179;SDS011;3631;42.152;24.756;2022-08-01T08:36:09;6.07;;;2.83;;
7179;SDS011;3631;42.152;24.756;2022-08-01T08:38:38;6.38;;;2.85;;
7179;SDS011;3631;42.152;24.756;2022-08-01T08:41:05;2.70;;;2.50;;
7179;SDS011;3631;42.152;24.756;2022-08-01T08:43:32;3.88;;;3.17;;
7179;SDS011;3631;42.152;24.756;2022-08-01T08:46:01;4.57;;;2.70;;
7179;SDS011;3631;42.152;24.756;2022-08-01T08:48:28;5.85;;;2.50;;
7179;SDS011;3631;42.152;24.756;2022-08-01T08:50:56;2.85;;;2.30;;
7179;SDS011;3631;42.152;24.756;2022-08-01T08:53:24;3.97;;;2.40;;
7179;SDS011;3631;42.152;24.756;2022-08-01T08:55:53;3.00;;;2.40;;
7179;SDS011;3631;42.152;24.756;2022-08-01T08:58:23;5.03;;;2.20;;
7179;SDS011;3631;42.152;24.756;2022-08-01T09:00:52;2.17;;;2.08;;
7179;SDS011;3631;42.152;24.756;2022-08-01T09:03:20;2.42;;;2.28;;
7179;SDS011;3631;42.152;24.756;2022-08-01T09:05:47;3.45;;;2.35;;
7179;SDS011;3631;42.152;24.756;2022-08-01T09:08:14;2.30;;;2.15;;
7179;SDS011;3631;42.152;24.756;2022-08-01T09:10:41;3.55;;;2.05;;
7179;SDS011;3631;42.152;24.756;2022-08-01T09:13:10;2.88;;;2.28;;
7179;SDS011;3631;42.152;24.756;2022-08-01T09:15:41;2.88;;;2.38;;
7179;SDS011;3631;42.152;24.756;2022-08-01T09:21:09;3.17;;;2.88;;
7179;SDS011;3631;42.152;24.756;2022-08-01T09:23:42;3.85;;;2.58;;
7179;SDS011;3631;42.152;24.756;2022-08-01T09:26:10;3.58;;;1.88;;
7179;SDS011;3631;42.152;24.756;2022-08-01T09:28:40;4.68;;;2.33;;
7179;SDS011;3631;42.152;24.756;2022-08-01T09:31:08;7.95;;;2.10;;
7179;SDS011;3631;42.152;24.756;2022-08-01T09:33:48;2.63;;;2.42;;
7179;SDS011;3631;42.152;24.756;2022-08-01T09:36:16;2.70;;;2.50;;
7179;SDS011;3631;42.152;24.756;2022-08-01T09:38:43;3.17;;;2.10;;
7179;SDS011;3631;42.152;24.756;2022-08-01T09:41:10;2.28;;;2.10;;
7179;SDS011;3631;42.152;24.756;2022-08-01T09:43:37;8.75;;;2.50;;
7179;SDS011;3631;42.152;24.756;2022-08-01T09:46:08;3.83;;;2.05;;
7179;SDS011;3631;42.152;24.756;2022-08-01T09:48:37;1.90;;;1.80;;
7179;SDS011;3631;42.152;24.756;2022-08-01T09:51:05;5.95;;;2.15;;
7179;SDS011;3631;42.152;24.756;2022-08-01T09:53:43;3.83;;;1.92;;
7179;SDS011;3631;42.152;24.756;2022-08-01T09:56:11;3.95;;;2.50;;
7179;SDS011;3631;42.152;24.756;2022-08-01T09:58:48;2.97;;;2.13;;
7179;SDS011;3631;42.152;24.756;2022-08-01T10:01:21;5.80;;;2.75;;
7179;SDS011;3631;42.152;24.756;2022-08-01T10:04:03;3.53;;;2.47;;
7179;SDS011;3631;42.152;24.756;2022-08-01T10:06:31;3.78;;;3.25;;
7179;SDS011;3631;42.152;24.756;2022-08-01T10:08:58;1.98;;;1.98;;
7179;SDS011;3631;42.152;24.756;2022-08-01T10:11:25;2.35;;;2.15;;
7179;SDS011;3631;42.152;24.756;2022-08-01T10:13:53;2.53;;;2.00;;
7179;SDS011;3631;42.152;24.756;2022-08-01T10:16:23;7.97;;;1.90;;
7179;SDS011;3631;42.152;24.756;2022-08-01T10:18:53;2.20;;;1.63;;
7179;SDS011;3631;42.152;24.756;2022-08-01T10:21:21;4.43;;;2.08;;
7179;SDS011;3631;42.152;24.756;2022-08-01T10:23:51;2.35;;;2.15;;
7179;SDS011;3631;42.152;24.756;2022-08-01T10:26:20;3.13;;;2.20;;
7179;SDS011;3631;42.152;24.756;2022-08-01T10:28:48;2.28;;;1.90;;
7179;SDS011;3631;42.152;24.756;2022-08-01T10:31:16;9.45;;;2.67;;
7179;SDS011;3631;42.152;24.756;2022-08-01T10:33:45;2.42;;;2.22;;
7179;SDS011;3631;42.152;24.756;2022-08-01T10:36:12;4.30;;;2.45;;
7179;SDS011;3631;42.152;24.756;2022-08-01T10:38:40;3.30;;;2.65;;
7179;SDS011;3631;42.152;24.756;2022-08-01T10:41:07;4.78;;;2.92;;
7179;SDS011;3631;42.152;24.756;2022-08-01T10:43:34;3.55;;;3.25;;
7179;SDS011;3631;42.152;24.756;2022-08-01T10:46:02;4.30;;;2.90;;
7179;SDS011;3631;42.152;24.756;2022-08-01T10:48:31;3.58;;;3.38;;
7179;SDS011;3631;42.152;24.756;2022-08-01T10:51:06;5.95;;;3.90;;
7179;SDS011;3631;42.152;24.756;2022-08-01T10:53:34;8.27;;;6.90;;
7179;SDS011;3631;42.152;24.756;2022-08-01T10:56:01;6.60;;;4.40;;
7179;SDS011;3631;42.152;24.756;2022-08-01T10:58:31;3.25;;;3.05;;
7179;SDS011;3631;42.152;24.756;2022-08-01T11:01:18;2.72;;;2.53;;
7179;SDS011;3631;42.152;24.756;2022-08-01T11:04:03;3.78;;;2.50;;
7179;SDS011;3631;42.152;24.756;2022-08-01T11:09:31;3.08;;;2.88;;
7179;SDS011;3631;42.152;24.756;2022-08-01T11:12:06;4.38;;;2.85;;
7179;SDS011;3631;42.152;24.756;2022-08-01T11:17:36;7.97;;;6.07;;
7179;SDS011;3631;42.152;24.756;2022-08-01T11:20:05;9.13;;;8.48;;
7179;SDS011;3631;42.152;24.756;2022-08-01T11:29:10;15.07;;;11.65;;
7179;SDS011;3631;42.152;24.756;2022-08-01T11:31:38;15.80;;;8.90;;
7179;SDS011;3631;42.152;24.756;2022-08-01T11:34:05;4.30;;;3.90;;
7179;SDS011;3631;42.152;24.756;2022-08-01T11:36:32;4.10;;;3.60;;
7179;SDS011;3631;42.152;24.756;2022-08-01T11:39:17;7.25;;;3.83;;
7179;SDS011;3631;42.152;24.756;2022-08-01T11:41:46;6.55;;;4.07;;
7179;SDS011;3631;42.152;24.756;2022-08-01T11:44:16;6.05;;;3.17;;
7179;SDS011;3631;42.152;24.756;2022-08-01T11:46:54;4.82;;;3.03;;
7179;SDS011;3631;42.152;24.756;2022-08-01T11:52:15;5.05;;;3.35;;
7179;SDS011;3631;42.152;24.756;2022-08-01T11:54:43;4.53;;;3.53;;
7179;SDS011;3631;42.152;24.756;2022-08-01T11:57:14;3.88;;;3.67;;
7179;SDS011;3631;42.152;24.756;2022-08-01T11:59:46;7.97;;;5.85;;
7179;SDS011;3631;42.152;24.756;2022-08-01T12:02:18;13.73;;;7.35;;
7179;SDS011;3631;42.152;24.756;2022-08-01T12:04:56;5.80;;;4.85;;
7179;SDS011;3631;42.152;24.756;2022-08-01T12:07:25;5.13;;;4.00;;
7179;SDS011;3631;42.152;24.756;2022-08-01T12:09:57;4.93;;;3.53;;
7179;SDS011;3631;42.152;24.756;2022-08-01T12:12:26;3.40;;;3.20;;
7179;SDS011;3631;42.152;24.756;2022-08-01T12:14:56;3.70;;;2.60;;
7179;SDS011;3631;42.152;24.756;2022-08-01T12:17:34;2.72;;;2.63;;
7179;SDS011;3631;42.152;24.756;2022-08-01T12:20:03;5.00;;;4.10;;
7179;SDS011;3631;42.152;24.756;2022-08-01T12:22:32;4.45;;;4.05;;
7179;SDS011;3631;42.152;24.756;2022-08-01T12:25:04;6.57;;;3.00;;
7179;SDS011;3631;42.152;24.756;2022-08-01T12:27:32;3.88;;;3.50;;
7179;SDS011;3631;42.152;24.756;2022-08-01T12:30:01;5.03;;;3.50;;
7179;SDS011;3631;42.152;24.756;2022-08-01T12:32:31;4.00;;;3.80;;
7179;SDS011;3631;42.152;24.756;2022-08-01T12:35:01;3.42;;;3.22;;
7179;SDS011;3631;42.152;24.756;2022-08-01T12:37:29;3.10;;;2.80;;
7179;SDS011;3631;42.152;24.756;2022-08-01T12:39:56;7.40;;;2.78;;
7179;SDS011;3631;42.152;24.756;2022-08-01T12:42:24;4.93;;;4.18;;
7179;SDS011;3631;42.152;24.756;2022-08-01T12:44:51;3.40;;;3.10;;
7179;SDS011;3631;42.152;24.756;2022-08-01T12:47:20;5.75;;;3.90;;
7179;SDS011;3631;42.152;24.756;2022-08-01T12:49:49;4.13;;;3.75;;
7179;SDS011;3631;42.152;24.756;2022-08-01T12:52:17;9.25;;;8.50;;
7179;SDS011;3631;42.152;24.756;2022-08-01T12:55:03;3.65;;;3.35;;
7179;SDS011;3631;42.152;24.756;2022-08-01T12:57:35;3.60;;;3.30;;
7179;SDS011;3631;42.152;24.756;2022-08-01T13:00:10;3.28;;;3.10;;
7179;SDS011;3631;42.152;24.756;2022-08-01T13:02:41;4.63;;;3.20;;
7179;SDS011;3631;42.152;24.756;2022-08-01T13:05:10;4.68;;;3.28;;
7179;SDS011;3631;42.152;24.756;2022-08-01T13:07:44;3.05;;;2.85;;
7179;SDS011;3631;42.152;24.756;2022-08-01T13:10:12;3.55;;;2.90;;
7179;SDS011;3631;42.152;24.756;2022-08-01T13:42:40;4.90;;;3.38;;
7179;SDS011;3631;42.152;24.756;2022-08-01T13:45:07;3.67;;;3.30;;
7179;SDS011;3631;42.152;24.756;2022-08-01T13:47:36;3.05;;;2.70;;
7179;SDS011;3631;42.152;24.756;2022-08-01T13:50:04;2.60;;;2.50;;
7179;SDS011;3631;42.152;24.756;2022-08-01T13:52:31;3.13;;;2.83;;
7179;SDS011;3631;42.152;24.756;2022-08-01T13:54:58;3.83;;;3.00;;
7179;SDS011;3631;42.152;24.756;2022-08-01T13:57:26;2.90;;;2.80;;
7179;SDS011;3631;42.152;24.756;2022-08-01T13:59:55;2.88;;;2.78;;
7179;SDS011;3631;42.152;24.756;2022-08-01T14:02:24;2.80;;;2.70;;
7179;SDS011;3631;42.152;24.756;2022-08-01T14:04:51;3.67;;;3.20;;
7179;SDS011;3631;42.152;24.756;2022-08-01T14:07:19;4.57;;;2.70;;
7179;SDS011;3631;42.152;24.756;2022-08-01T14:09:46;3.55;;;3.25;;
7179;SDS011;3631;42.152;24.756;2022-08-01T14:12:13;4.53;;;3.20;;
7179;SDS011;3631;42.152;24.756;2022-08-01T14:14:40;3.22;;;2.70;;
7179;SDS011;3631;42.152;24.756;2022-08-01T14:17:08;4.38;;;3.67;;
7179;SDS011;3631;42.152;24.756;2022-08-01T14:19:35;2.90;;;2.80;;
7179;SDS011;3631;42.152;24.756;2022-08-01T14:22:02;3.40;;;3.10;;
7179;SDS011;3631;42.152;24.756;2022-08-01T14:24:29;7.75;;;3.60;;
7179;SDS011;3631;42.152;24.756;2022-08-01T14:26:56;4.82;;;3.55;;
7179;SDS011;3631;42.152;24.756;2022-08-01T14:29:23;4.40;;;3.42;;
7179;SDS011;3631;42.152;24.756;2022-08-01T14:31:50;3.63;;;3.35;;
7179;SDS011;3631;42.152;24.756;2022-08-01T14:34:18;3.60;;;3.35;;
7179;SDS011;3631;42.152;24.756;2022-08-01T14:36:45;4.35;;;3.15;;
7179;SDS011;3631;42.152;24.756;2022-08-01T14:39:12;3.22;;;3.03;;
7179;SDS011;3631;42.152;24.756;2022-08-01T14:41:39;4.93;;;3.28;;
7179;SDS011;3631;42.152;24.756;2022-08-01T14:44:06;3.53;;;3.10;;
7179;SDS011;3631;42.152;24.756;2022-08-01T14:46:34;3.47;;;3.17;;
7179;SDS011;3631;42.152;24.756;2022-08-01T14:49:01;3.67;;;3.33;;
7179;SDS011;3631;42.152;24.756;2022-08-01T14:51:29;4.28;;;3.85;;
7179;SDS011;3631;42.152;24.756;2022-08-01T14:53:59;8.85;;;3.78;;
7179;SDS011;3631;42.152;24.756;2022-08-01T14:56:26;13.25;;;3.40;;
7179;SDS011;3631;42.152;24.756;2022-08-01T14:58:53;6.68;;;3.85;;
7179;SDS011;3631;42.152;24.756;2022-08-01T15:01:20;5.45;;;3.15;;
7179;SDS011;3631;42.152;24.756;2022-08-01T15:03:47;3.88;;;3.67;;
7179;SDS011;3631;42.152;24.756;2022-08-01T15:06:15;3.38;;;3.28;;
7179;SDS011;3631;42.152;24.756;2022-08-01T15:08:44;3.47;;;3.17;;
7179;SDS011;3631;42.152;24.756;2022-08-01T15:11:11;3.38;;;3.17;;
7179;SDS011;3631;42.152;24.756;2022-08-01T15:13:38;4.57;;;4.28;;
7179;SDS011;3631;42.152;24.756;2022-08-01T15:16:05;3.75;;;3.45;;
7179;SDS011;3631;42.152;24.756;2022-08-01T15:18:32;2.83;;;2.70;;
7179;SDS011;3631;42.152;24.756;2022-08-01T15:20:58;5.88;;;4.07;;
7179;SDS011;3631;42.152;24.756;2022-08-01T15:23:25;9.48;;;8.30;;
7179;SDS011;3631;42.152;24.756;2022-08-01T15:25:54;4.72;;;4.43;;
7179;SDS011;3631;42.152;24.756;2022-08-01T15:28:21;6.43;;;5.93;;
7179;SDS011;3631;42.152;24.756;2022-08-01T15:30:48;7.07;;;6.53;;
7179;SDS011;3631;42.152;24.756;2022-08-01T15:33:15;3.45;;;3.35;;
7179;SDS011;3631;42.152;24.756;2022-08-01T15:35:42;4.38;;;4.07;;
7179;SDS011;3631;42.152;24.756;2022-08-01T15:38:09;4.40;;;4.10;;
7179;SDS011;3631;42.152;24.756;2022-08-01T15:40:36;3.88;;;3.60;;
7179;SDS011;3631;42.152;24.756;2022-08-01T15:43:04;3.30;;;3.10;;
7179;SDS011;3631;42.152;24.756;2022-08-01T15:45:31;4.40;;;3.97;;
7179;SDS011;3631;42.152;24.756;2022-08-01T15:47:58;3.53;;;3.33;;
7179;SDS011;3631;42.152;24.756;2022-08-01T15:50:25;3.40;;;3.20;;
7179;SDS011;3631;42.152;24.756;2022-08-01T15:52:52;4.50;;;2.67;;
7179;SDS011;3631;42.152;24.756;2022-08-01T15:55:19;3.33;;;3.03;;
7179;SDS011;3631;42.152;24.756;2022-08-01T15:57:46;3.42;;;3.22;;
7179;SDS011;3631;42.152;24.756;2022-08-01T16:00:14;3.90;;;3.28;;
7179;SDS011;3631;42.152;24.756;2022-08-01T16:02:41;3.70;;;3.50;;